Time;durP1;ratioP1;P1;durP2;ratioP2;P2;SDS_P1;SDS_P2;PMS_P1;PMS_P2;Temp;Humidity;BMP_temperature;BMP_pressure;BME280_temperature;BME280_humidity;BME280_pressure;Samples;Min_cycle;Max_cycle;Signal;HPM_P1;HPM_P2
2021/01/15 00:01:09;;;;;;;18.85;8.05;;;;;;;4.15;83.50;102220.47;4993421;28;20050;-53
2021/01/15 00:03:37;;;;;;;15.23;8.70;;;;;;;4.06;83.69;102213.81;4991020;28;20400;-54
2021/01/15 00:06:07;;;;;;;21.67;8.93;;;;;;;4.05;83.96;102225.88;4992279;28;20046;-54
2021/01/15 00:08:35;;;;;;;13.90;8.88;;;;;;;4.00;83.52;102219.53;4992011;28;20432;-51
2021/01/15 00:11:01;;;;;;;23.17;9.65;;;;;;;4.00;83.55;102217.63;4991570;28;20046;-55
2021/01/15 00:13:27;;;;;;;17.95;10.30;;;;;;;3.93;83.71;102228.00;5007812;28;20038;-57
2021/01/15 00:15:53;;;;;;;22.17;11.38;;;;;;;3.94;83.97;102229.66;4974530;28;20153;-53
2021/01/15 00:18:20;;;;;;;19.85;10.82;;;;;;;3.98;83.77;102239.00;4990955;28;20523;-54
2021/01/15 00:20:46;;;;;;;19.13;10.90;;;;;;;3.99;84.12;102224.22;4990130;28;20576;-53
2021/01/15 00:23:16;;;;;;;19.63;10.75;;;;;;;3.97;83.37;102226.38;4993107;28;20054;-53
2021/01/15 00:25:46;;;;;;;29.25;14.70;;;;;;;3.88;83.88;102229.88;4991177;28;20042;-54
2021/01/15 00:28:12;;;;;;;22.65;12.45;;;;;;;3.80;83.90;102222.16;4992206;28;20480;-56
2021/01/15 00:30:38;;;;;;;24.80;12.70;;;;;;;3.72;83.91;102231.69;4992360;28;20046;-55
2021/01/15 00:33:05;;;;;;;27.40;13.70;;;;;;;3.67;83.87;102227.03;4991399;28;20066;-57
2021/01/15 00:35:31;;;;;;;23.30;13.95;;;;;;;3.65;84.00;102220.16;4992264;28;20066;-53
2021/01/15 00:37:58;;;;;;;21.85;12.40;;;;;;;3.66;84.23;102222.63;4988604;28;20056;-55
2021/01/15 00:40:25;;;;;;;23.13;11.02;;;;;;;3.64;83.85;102226.72;4991591;28;20559;-55
2021/01/15 00:42:51;;;;;;;20.55;10.82;;;;;;;3.62;84.03;102226.97;4991358;28;20054;-56
2021/01/15 00:45:17;;;;;;;14.13;9.13;;;;;;;3.62;84.21;102231.63;4997229;28;20456;-56
2021/01/15 00:47:45;;;;;;;16.92;8.98;;;;;;;3.62;84.39;102231.63;4990931;28;20042;-53
2021/01/15 00:50:13;;;;;;;18.48;9.07;;;;;;;3.63;84.30;102236.00;4974396;28;20046;-55
2021/01/15 00:52:39;;;;;;;14.70;7.47;;;;;;;3.65;84.24;102231.13;4991679;28;20073;-56
2021/01/15 00:55:07;;;;;;;24.20;10.38;;;;;;;3.64;83.70;102230.28;4974445;28;20077;-54
2021/01/15 00:57:39;;;;;;;18.23;10.18;;;;;;;3.69;83.70;102229.47;4991506;28;20064;-54
2021/01/15 01:00:08;;;;;;;22.38;9.02;;;;;;;3.66;83.28;102233.56;4991889;28;20423;-53
2021/01/15 01:02:35;;;;;;;20.13;9.93;;;;;;;3.67;83.36;102234.41;4990576;28;20038;-56
2021/01/15 01:05:04;;;;;;;19.85;11.75;;;;;;;3.65;82.91;102242.06;4988644;28;20046;-55
2021/01/15 01:07:33;;;;;;;23.20;12.35;;;;;;;3.62;83.10;102245.31;4968265;28;20447;-56
2021/01/15 01:09:59;;;;;;;24.05;12.23;;;;;;;3.59;83.31;102243.09;4981471;28;20124;-56
2021/01/15 01:12:26;;;;;;;19.85;10.95;;;;;;;3.56;82.82;102244.47;4994191;28;20046;-56
2021/01/15 01:14:53;;;;;;;23.10;11.13;;;;;;;3.51;83.03;102240.84;4991750;28;20046;-54
2021/01/15 01:17:19;;;;;;;22.33;11.02;;;;;;;3.48;83.07;102239.47;4990254;28;20647;-52
2021/01/15 01:19:45;;;;;;;19.73;10.95;;;;;;;3.44;83.31;102243.00;4991529;28;20148;-54
2021/01/15 01:22:12;;;;;;;21.58;10.32;;;;;;;3.45;83.54;102247.38;4991288;28;20555;-54
2021/01/15 01:24:38;;;;;;;22.88;11.60;;;;;;;3.46;82.98;102249.03;4991800;28;20050;-52
2021/01/15 01:27:04;;;;;;;26.13;11.35;;;;;;;3.46;83.27;102243.56;4988588;28;20078;-53
2021/01/15 01:29:31;;;;;;;24.65;11.00;;;;;;;3.42;83.02;102250.63;4991389;28;20466;-57
2021/01/15 01:31:59;;;;;;;17.85;11.13;;;;;;;3.41;82.80;102247.09;4987722;28;20121;-55
2021/01/15 01:34:26;;;;;;;19.55;10.23;;;;;;;3.42;82.97;102256.09;4990221;28;20141;-58
2021/01/15 01:36:52;;;;;;;22.00;10.00;;;;;;;3.38;83.04;102244.03;4991192;28;20054;-55
2021/01/15 01:39:18;;;;;;;21.73;10.65;;;;;;;3.36;83.31;102246.22;4991290;28;20054;-56
2021/01/15 01:41:49;;;;;;;21.50;10.18;;;;;;;3.33;82.97;102249.47;4957307;28;20058;-59
2021/01/15 01:44:15;;;;;;;21.02;9.65;;;;;;;3.32;83.09;102254.09;4990278;28;20054;-54
2021/01/15 01:46:42;;;;;;;19.83;10.20;;;;;;;3.31;83.11;102257.13;4989946;28;20042;-54
2021/01/15 01:49:08;;;;;;;18.27;10.25;;;;;;;3.30;83.26;102260.94;4991344;28;20054;-54
2021/01/15 01:51:34;;;;;;;20.52;9.02;;;;;;;3.24;83.29;102262.78;4974838;28;20043;-55
2021/01/15 01:54:01;;;;;;;19.70;9.35;;;;;;;3.19;83.59;102267.38;4987524;28;20121;-56
2021/01/15 01:56:27;;;;;;;15.82;9.02;;;;;;;3.13;83.61;102268.41;4990250;28;20128;-53
2021/01/15 01:58:54;;;;;;;17.33;9.48;;;;;;;3.08;83.89;102275.50;4989073;28;20182;-54
2021/01/15 02:01:21;;;;;;;17.30;9.10;;;;;;;3.10;83.91;102274.44;4996169;28;20142;-57
2021/01/15 02:03:58;;;;;;;16.73;9.35;;;;;;;3.10;83.71;102283.44;4988857;28;20133;-55
2021/01/15 02:06:26;;;;;;;15.65;8.77;;;;;;;3.13;84.05;102287.56;4988576;28;20070;-55
2021/01/15 02:08:52;;;;;;;16.13;8.10;;;;;;;3.13;83.73;102293.03;4991340;28;20129;-58
2021/01/15 02:11:28;;;;;;;14.65;8.23;;;;;;;3.08;83.99;102283.69;4997404;28;20519;-57
2021/01/15 02:14:28;;;;;;;15.68;8.43;;;;;;;3.07;83.79;102282.03;4991297;28;20121;-54
2021/01/15 02:16:56;;;;;;;18.85;8.75;;;;;;;3.08;83.96;102278.22;4987068;28;20050;-55
2021/01/15 02:19:41;;;;;;;17.55;7.90;;;;;;;3.00;84.14;102266.91;4994330;28;20046;-54
2021/01/15 02:22:22;;;;;;;12.50;8.65;;;;;;;2.94;83.99;102268.78;4986617;28;20042;-56
2021/01/15 02:24:58;;;;;;;19.85;10.27;;;;;;;2.89;84.62;102282.41;4994526;28;20129;-55
2021/01/15 02:28:02;;;;;;;16.35;8.25;;;;;;;2.85;84.60;102281.28;4976436;28;20045;-54
2021/01/15 02:30:43;;;;;;;20.13;9.80;;;;;;;2.86;84.57;102282.09;4977254;28;20060;-55
2021/01/15 02:33:26;;;;;;;20.15;9.40;;;;;;;2.85;85.00;102292.22;4993239;28;20078;-56
2021/01/15 02:36:07;;;;;;;18.05;10.73;;;;;;;2.89;84.90;102282.41;4976617;28;20038;-55
2021/01/15 02:38:53;;;;;;;19.25;9.38;;;;;;;2.89;84.35;102265.16;4994547;28;20078;-53
2021/01/15 02:41:26;;;;;;;19.85;8.82;;;;;;;2.90;84.43;102277.75;4995306;28;20046;-56
2021/01/15 02:44:04;;;;;;;19.23;8.40;;;;;;;2.86;84.08;102273.91;5001124;28;20049;-54
2021/01/15 02:46:45;;;;;;;18.00;8.80;;;;;;;2.81;84.52;102274.66;5004644;28;20077;-53
2021/01/15 02:49:13;;;;;;;18.63;10.73;;;;;;;2.76;84.38;102274.59;4994395;28;20053;-56
2021/01/15 02:51:40;;;;;;;21.05;10.30;;;;;;;2.69;84.70;102276.72;4994312;28;20089;-53
2021/01/15 02:54:07;;;;;;;21.15;10.10;;;;;;;2.68;84.51;102280.50;4985089;28;20058;-55
2021/01/15 02:56:35;;;;;;;16.33;9.98;;;;;;;2.63;84.89;102274.97;4994274;28;20038;-55
2021/01/15 02:59:01;;;;;;;24.10;11.25;;;;;;;2.62;84.95;102276.06;4993074;28;20145;-56
2021/01/15 03:01:31;;;;;;;18.63;10.30;;;;;;;2.68;84.61;102280.50;4994189;28;20365;-56
2021/01/15 03:04:06;;;;;;;22.77;10.50;;;;;;;2.71;84.28;102285.47;4994060;28;20117;-58
2021/01/15 03:06:49;;;;;;;26.45;12.68;;;;;;;2.75;84.26;102286.63;4991436;28;20046;-54
2021/01/15 03:09:17;;;;;;;23.75;13.00;;;;;;;2.72;84.20;102278.94;4995276;28;20121;-56
2021/01/15 03:11:45;;;;;;;26.70;15.32;;;;;;;2.67;84.29;102278.03;4993842;28;20110;-55
2021/01/15 03:14:16;;;;;;;25.27;12.05;;;;;;;2.66;84.35;102279.13;4993317;28;20050;-55
2021/01/15 03:16:44;;;;;;;22.80;10.68;;;;;;;2.68;84.40;102275.03;4992302;28;20133;-54
2021/01/15 03:19:12;;;;;;;24.38;11.98;;;;;;;2.67;84.38;102273.41;4993450;28;20046;-55
2021/01/15 03:21:39;;;;;;;24.83;11.13;;;;;;;2.65;84.49;102270.06;4988580;28;20493;-53
2021/01/15 03:24:08;;;;;;;22.17;11.02;;;;;;;2.61;84.28;102273.59;4976400;28;20124;-55
2021/01/15 03:26:35;;;;;;;22.52;13.02;;;;;;;2.63;84.48;102276.88;4975868;28;20073;-52
2021/01/15 03:29:02;;;;;;;26.20;12.60;;;;;;;2.58;84.56;102269.47;4991755;28;20540;-56
2021/01/15 03:31:28;;;;;;;19.02;11.23;;;;;;;2.58;84.84;102274.09;4975887;28;20077;-56
2021/01/15 03:33:58;;;;;;;20.33;10.63;;;;;;;2.62;84.79;102267.84;4977244;28;20087;-56
2021/01/15 03:36:25;;;;;;;22.30;10.55;;;;;;;2.69;84.45;102265.78;4974735;28;20061;-56
2021/01/15 03:38:51;;;;;;;17.23;9.10;;;;;;;2.66;84.12;102270.91;4992193;28;20105;-56
2021/01/15 03:41:17;;;;;;;22.52;11.98;;;;;;;2.61;84.62;102263.47;4975630;28;20057;-53
2021/01/15 03:43:44;;;;;;;21.65;10.57;;;;;;;2.62;84.50;102254.19;4975774;28;20050;-56
2021/01/15 03:46:10;;;;;;;21.75;10.55;;;;;;;2.64;84.30;102257.50;4993403;28;20130;-54
2021/01/15 03:48:37;;;;;;;22.63;10.50;;;;;;;2.66;84.40;102260.81;4993159;28;20507;-55
2021/01/15 03:51:03;;;;;;;23.02;12.02;;;;;;;2.71;84.10;102257.28;4992789;28;20046;-57
2021/01/15 03:53:32;;;;;;;21.95;10.95;;;;;;;2.67;84.00;102259.75;4992390;28;20042;-56
2021/01/15 03:55:59;;;;;;;16.33;9.73;;;;;;;2.60;84.09;102267.28;4991358;28;20086;-53
2021/01/15 03:58:26;;;;;;;21.95;10.65;;;;;;;2.56;84.50;102265.31;4992613;28;20851;-56
2021/01/15 04:00:52;;;;;;;16.33;9.95;;;;;;;2.55;84.42;102272.69;4975748;28;20122;-57
2021/01/15 04:03:19;;;;;;;22.27;10.75;;;;;;;2.51;84.40;102255.16;4992290;28;20094;-57
2021/01/15 04:05:45;;;;;;;21.77;10.35;;;;;;;2.48;84.83;102250.19;4971340;28;20568;-53
2021/01/15 04:08:11;;;;;;;19.45;10.25;;;;;;;2.50;84.67;102245.31;4973583;28;20049;-62
2021/01/15 04:10:37;;;;;;;18.25;9.13;;;;;;;2.51;84.49;102246.97;4989624;28;20046;-54
2021/01/15 04:13:04;;;;;;;16.73;9.60;;;;;;;2.51;84.57;102262.53;4977321;28;20085;-55
2021/01/15 04:15:30;;;;;;;18.42;9.27;;;;;;;2.51;84.46;102257.91;4973525;28;20442;-57
2021/01/15 04:18:00;;;;;;;17.70;9.25;;;;;;;2.55;84.73;102258.19;4972955;28;20500;-54
2021/01/15 04:20:27;;;;;;;19.17;10.43;;;;;;;2.53;84.48;102272.13;4970330;28;20038;-57
2021/01/15 04:22:53;;;;;;;14.55;8.07;;;;;;;2.55;84.89;102272.69;4978224;28;20126;-54
2021/01/15 04:25:19;;;;;;;17.48;8.75;;;;;;;2.57;84.32;102273.25;4973781;28;20039;-53
2021/01/15 04:27:46;;;;;;;19.70;10.48;;;;;;;2.51;84.62;102268.84;4972994;28;20581;-52
2021/01/15 04:30:13;;;;;;;19.38;8.95;;;;;;;2.47;84.81;102257.56;4973577;28;20390;-57
2021/01/15 04:32:49;;;;;;;18.38;8.73;;;;;;;2.53;84.66;102265.84;4973534;28;20496;-57
2021/01/15 04:35:18;;;;;;;29.20;12.25;;;;;;;2.59;84.40;102273.84;4974322;28;20119;-54
2021/01/15 04:37:47;;;;;;;23.73;11.93;;;;;;;2.61;84.28;102268.94;4972997;28;20057;-57
2021/01/15 04:40:13;;;;;;;27.33;13.18;;;;;;;2.58;84.14;102264.00;4972899;28;20038;-55
2021/01/15 04:42:43;;;;;;;23.83;11.73;;;;;;;2.54;84.24;102262.88;4977030;28;20117;-57
2021/01/15 04:45:14;;;;;;;19.63;11.50;;;;;;;2.54;84.64;102270.22;4984991;28;20829;-58
2021/01/15 04:47:45;;;;;;;;;;;;;;;2.51;84.34;102266.09;4991234;28;20461;-56
2021/01/15 04:50:14;;;;;;;25.30;11.98;;;;;;;2.50;84.65;102266.34;4990303;28;20032;-59
2021/01/15 04:52:51;;;;;;;24.40;11.65;;;;;;;2.47;84.58;102267.66;4980909;28;20070;-52
2021/01/15 04:55:26;;;;;;;20.33;9.63;;;;;;;2.49;85.14;102265.50;4988078;28;20071;-52
2021/01/15 04:57:54;;;;;;;28.17;10.13;;;;;;;2.55;85.02;102269.13;4977198;28;20051;-55
2021/01/15 05:00:22;;;;;;;22.45;10.23;;;;;;;2.62;84.79;102264.31;4976623;28;20050;-52
2021/01/15 05:02:50;;;;;;;17.60;9.73;;;;;;;2.65;84.77;102267.34;4958882;28;20050;-56
2021/01/15 05:05:24;;;;;;;23.48;10.88;;;;;;;2.68;85.04;102258.63;4991395;28;20548;-55
2021/01/15 05:08:09;;;;;;;20.35;10.20;;;;;;;2.72;84.76;102265.25;4974285;28;20492;-54
2021/01/15 05:10:47;;;;;;;19.98;10.45;;;;;;;2.75;84.65;102269.38;5003028;28;20097;-57
2021/01/15 05:13:15;;;;;;;22.95;11.10;;;;;;;2.78;84.55;102275.16;4991427;28;20046;-52
2021/01/15 05:15:44;;;;;;;16.67;9.38;;;;;;;2.77;84.41;102275.41;4973636;28;20070;-57
2021/01/15 05:18:11;;;;;;;17.98;10.48;;;;;;;2.75;84.33;102275.69;4991521;28;20443;-56
2021/01/15 05:20:38;;;;;;;17.13;9.73;;;;;;;2.69;84.38;102273.13;4991231;28;20046;-57
2021/01/15 05:23:06;;;;;;;18.75;10.00;;;;;;;2.60;84.82;102272.75;4991973;28;20092;-58
2021/01/15 05:25:34;;;;;;;18.25;9.57;;;;;;;2.55;84.83;102280.91;4991587;28;20103;-57
2021/01/15 05:28:01;;;;;;;22.10;10.18;;;;;;;2.56;84.71;102277.09;4989651;28;20563;-53
2021/01/15 05:30:29;;;;;;;15.88;9.18;;;;;;;2.53;84.61;102277.59;4990813;28;20070;-55
2021/01/15 05:32:58;;;;;;;17.38;10.38;;;;;;;2.45;84.82;102276.13;4991722;28;20433;-57
2021/01/15 05:35:43;;;;;;;17.95;10.50;;;;;;;2.42;85.04;102281.28;4991371;28;20044;-54
2021/01/15 05:38:15;;;;;;;20.08;10.27;;;;;;;2.39;84.89;102282.63;4976628;28;20073;-56
2021/01/15 05:40:45;;;;;;;21.85;10.23;;;;;;;2.39;84.65;102288.06;4974135;28;20074;-53
2021/01/15 05:43:21;;;;;;;16.02;8.18;;;;;;;2.34;85.05;102288.00;4973805;28;20114;-56
2021/01/15 05:46:09;;;;;;;20.30;10.18;;;;;;;2.32;84.95;102286.63;4991269;28;20046;-56
2021/01/15 05:48:48;;;;;;;17.02;9.27;;;;;;;2.32;85.29;102286.63;4973689;28;20046;-57
2021/01/15 05:51:35;;;;;;;19.98;8.88;;;;;;;2.36;84.77;102276.81;4992117;28;20038;-54
2021/01/15 05:54:04;;;;;;;20.02;9.25;;;;;;;2.34;85.03;102274.34;4994751;28;20074;-57
2021/01/15 05:56:43;;;;;;;17.88;8.75;;;;;;;2.35;84.81;102280.66;4995752;28;20124;-55
2021/01/15 05:59:11;;;;;;;15.73;8.25;;;;;;;2.38;85.04;102274.69;4994462;28;20066;-58
2021/01/15 06:01:50;;;;;;;14.50;8.32;;;;;;;2.36;84.96;102276.81;4996815;28;20061;-57
2021/01/15 06:04:39;;;;;;;16.65;9.18;;;;;;;2.40;84.83;102283.44;4994714;28;20065;-57
2021/01/15 06:07:09;;;;;;;19.05;8.95;;;;;;;2.41;84.70;102279.63;4988870;28;20058;-59
2021/01/15 06:09:37;;;;;;;15.82;8.90;;;;;;;2.38;84.41;102269.22;4998142;28;20448;-56
2021/01/15 06:12:05;;;;;;;14.48;8.25;;;;;;;2.35;84.93;102276.00;4999125;28;20093;-56
2021/01/15 06:14:32;;;;;;;23.90;9.95;;;;;;;2.35;84.83;102277.91;4997163;28;20089;-57
2021/01/15 06:17:06;;;;;;;18.00;9.40;;;;;;;2.34;84.55;102278.97;4976698;28;20038;-57
2021/01/15 06:19:46;;;;;;;20.00;11.88;;;;;;;2.34;84.89;102276.25;4993905;28;20129;-57
2021/01/15 06:22:46;;;;;;;16.17;10.63;;;;;;;2.34;84.84;102266.16;4992957;28;20046;-53
2021/01/15 06:25:21;;;;;;;18.20;9.35;;;;;;;2.36;84.78;102268.63;4986223;28;20061;-53
2021/01/15 06:27:51;;;;;;;13.90;9.00;;;;;;;2.37;84.40;102256.63;4993699;28;20053;-54
2021/01/15 06:30:20;;;;;;;15.18;9.18;;;;;;;2.38;84.43;102259.09;4993235;28;20039;-54
2021/01/15 06:32:47;;;;;;;17.55;10.00;;;;;;;2.41;84.61;102260.47;4975647;28;20110;-59
2021/01/15 06:35:30;;;;;;;17.60;10.68;;;;;;;2.38;84.44;102266.47;4990781;28;20050;-55
2021/01/15 06:37:57;;;;;;;17.70;9.88;;;;;;;2.35;84.76;102265.09;4975552;28;20078;-57
2021/01/15 06:40:39;;;;;;;21.52;11.60;;;;;;;2.31;84.77;102265.81;4993295;28;20046;-57
2021/01/15 06:43:36;;;;;;;22.33;11.70;;;;;;;2.30;84.58;102259.53;4988068;28;20038;-57
2021/01/15 06:46:04;;;;;;;18.42;10.45;;;;;;;2.33;84.77;102255.50;4973997;28;20058;-55
2021/01/15 06:48:40;;;;;;;18.33;9.70;;;;;;;2.33;84.39;102255.50;4993814;28;20042;-58
2021/01/15 06:51:08;;;;;;;17.58;11.48;;;;;;;2.32;84.62;102253.81;4992212;28;20049;-58
2021/01/15 06:53:41;;;;;;;16.05;9.43;;;;;;;2.31;84.57;102250.25;4993318;28;20145;-57
2021/01/15 06:56:12;;;;;;;17.30;9.93;;;;;;;2.29;84.79;102254.31;4991935;28;20153;-53
2021/01/15 06:58:38;;;;;;;19.13;11.10;;;;;;;2.29;84.81;102254.31;4978989;28;20406;-58
2021/01/15 07:01:26;;;;;;;15.98;9.20;;;;;;;2.33;84.46;102267.22;4997081;28;20058;-56
2021/01/15 07:04:20;;;;;;;17.50;9.45;;;;;;;2.34;84.33;102263.41;4973812;28;20101;-57
2021/01/15 07:06:56;;;;;;;15.30;10.40;;;;;;;2.31;84.37;102269.38;4988610;28;20527;-57
2021/01/15 07:09:27;;;;;;;17.02;10.18;;;;;;;2.31;84.66;102274.84;4960648;28;20126;-57
2021/01/15 07:11:58;;;;;;;14.57;9.93;;;;;;;2.37;84.26;102281.22;4993885;28;20113;-56
2021/01/15 07:14:28;;;;;;;20.33;10.27;;;;;;;2.37;84.32;102270.28;4992279;28;20042;-55
2021/01/15 07:16:56;;;;;;;18.38;9.90;;;;;;;2.33;84.19;102266.41;4989829;28;20300;-57
2021/01/15 07:19:37;;;;;;;18.73;9.07;;;;;;;2.25;84.46;102266.84;4992265;28;20050;-56
2021/01/15 07:22:03;;;;;;;15.70;10.10;;;;;;;2.27;84.59;102272.88;4990685;28;20089;-57
2021/01/15 07:24:34;;;;;;;17.88;9.02;;;;;;;2.28;84.34;102279.97;4991959;28;20492;-57
2021/01/15 07:27:04;;;;;;;16.70;10.10;;;;;;;2.28;84.35;102269.06;4974532;28;20393;-56
2021/01/15 07:29:34;;;;;;;17.33;10.40;;;;;;;2.28;84.52;102271.78;4991527;28;20125;-56
2021/01/15 07:32:08;;;;;;;17.80;8.90;;;;;;;2.24;84.77;102271.47;4992018;28;20046;-57
2021/01/15 07:34:37;;;;;;;18.42;9.68;;;;;;;2.25;84.84;102275.84;4991591;28;20076;-57
2021/01/15 07:37:36;;;;;;;21.10;10.85;;;;;;;2.21;84.98;102271.16;4992467;28;20104;-55
2021/01/15 07:40:09;;;;;;;19.65;11.68;;;;;;;2.24;84.90;102278.84;4922252;28;20062;-56
2021/01/15 07:42:38;;;;;;;15.75;10.95;;;;;;;2.22;85.06;102279.13;4991722;28;20447;-57
2021/01/15 07:45:06;;;;;;;18.17;11.05;;;;;;;2.24;84.87;102284.31;4991781;28;20073;-57
2021/01/15 07:47:37;;;;;;;19.17;10.32;;;;;;;2.25;84.65;102281.31;4992268;28;20500;-57
2021/01/15 07:50:07;;;;;;;20.55;10.80;;;;;;;2.25;84.61;102294.19;4990703;28;20064;-57
2021/01/15 07:52:37;;;;;;;19.80;11.57;;;;;;;2.27;84.64;102281.91;4990598;28;20042;-54
2021/01/15 07:55:04;;;;;;;23.77;12.35;;;;;;;2.29;84.80;102276.19;4989778;28;20122;-55
2021/01/15 07:57:31;;;;;;;17.48;10.50;;;;;;;2.30;84.50;102277.84;4976818;28;20042;-56
2021/01/15 08:00:26;;;;;;;18.00;10.98;;;;;;;2.30;84.73;102286.03;4976191;28;20050;-54
2021/01/15 08:03:02;;;;;;;20.55;13.15;;;;;;;2.32;84.81;102286.63;4989351;28;20492;-56
2021/01/15 08:05:28;;;;;;;18.85;10.90;;;;;;;2.34;84.67;102281.72;4973346;28;20050;-54
2021/01/15 08:08:10;;;;;;;24.33;11.90;;;;;;;2.35;84.73;102291.56;4973177;28;20460;-55
2021/01/15 08:10:50;;;;;;;22.80;12.65;;;;;;;2.38;85.00;102285.63;4992077;28;20058;-54
2021/01/15 08:13:20;;;;;;;20.05;11.00;;;;;;;2.41;84.61;102279.63;4990596;28;20038;-54
2021/01/15 08:15:47;;;;;;;24.15;11.13;;;;;;;2.42;84.99;102278.53;4990188;28;20046;-55
2021/01/15 08:18:14;;;;;;;16.05;9.52;;;;;;;2.43;84.70;102272.00;4974396;28;20038;-55
2021/01/15 08:21:09;;;;;;;20.45;11.55;;;;;;;2.42;85.17;102264.88;4991586;28;20053;-58
2021/01/15 08:23:35;;;;;;;21.83;10.88;;;;;;;2.48;85.25;102255.66;4964983;28;20401;-58
2021/01/15 08:26:33;;;;;;;19.60;11.10;;;;;;;2.51;85.33;102263.38;4990500;28;20475;-57
2021/01/15 08:29:03;;;;;;;16.42;10.75;;;;;;;2.55;85.04;102263.66;4949549;28;20049;-56
2021/01/15 08:31:30;;;;;;;20.67;10.80;;;;;;;2.56;85.47;102257.97;4986309;28;20077;-57
2021/01/15 08:34:08;;;;;;;20.58;11.07;;;;;;;2.59;85.38;102259.34;4973578;28;20061;-57
2021/01/15 08:36:37;;;;;;;29.80;13.23;;;;;;;2.61;85.28;102243.50;4990526;28;20042;-53
2021/01/15 08:39:04;;;;;;;23.50;10.52;;;;;;;2.61;85.37;102247.06;4989471;28;20108;-55
2021/01/15 08:41:31;;;;;;;21.83;10.75;;;;;;;2.63;85.34;102255.00;4948469;28;20074;-55
2021/01/15 08:43:58;;;;;;;19.73;11.02;;;;;;;2.63;85.67;102250.38;4988639;28;20046;-55
2021/01/15 08:46:24;;;;;;;21.65;10.73;;;;;;;2.65;85.72;102253.69;4991066;28;20101;-56
2021/01/15 08:48:51;;;;;;;24.77;11.98;;;;;;;2.65;85.61;102242.75;4990509;28;20047;-56
2021/01/15 08:51:21;;;;;;;25.45;12.40;;;;;;;2.67;85.98;102246.06;4964326;28;20054;-55
2021/01/15 08:54:05;;;;;;;19.35;10.68;;;;;;;2.70;85.69;102244.72;4984776;28;20043;-55
2021/01/15 08:56:41;;;;;;;17.40;9.98;;;;;;;2.71;86.33;102236.25;4987484;28;20053;-54
2021/01/15 08:59:13;;;;;;;22.48;10.30;;;;;;;2.74;86.05;102219.34;4984735;28;20054;-54
2021/01/15 09:01:41;;;;;;;27.83;12.40;;;;;;;2.75;85.99;102221.00;4985768;28;20074;-58
2021/01/15 09:04:10;;;;;;;26.92;10.80;;;;;;;2.77;86.13;102232.50;4990199;28;20046;-51
2021/01/15 09:06:39;;;;;;;23.95;10.88;;;;;;;2.81;86.30;102225.41;4989283;28;20409;-56
2021/01/15 09:09:10;;;;;;;15.63;7.18;;;;;;;2.85;86.30;102221.09;4971237;28;20038;-58
2021/01/15 09:11:38;;;;;;;18.77;10.20;;;;;;;2.89;86.43;102224.13;4979116;28;20066;-55
2021/01/15 09:14:07;;;;;;;22.13;10.35;;;;;;;2.91;86.35;102235.66;4972858;28;20042;-54
2021/01/15 09:16:34;;;;;;;21.08;8.40;;;;;;;2.95;86.41;102229.41;4991556;28;20055;-58
2021/01/15 09:19:06;;;;;;;24.35;9.93;;;;;;;2.99;86.74;102226.97;4975874;28;20035;-57
2021/01/15 09:21:33;;;;;;;19.70;9.65;;;;;;;3.04;86.75;102227.84;4990489;28;20074;-58
2021/01/15 09:23:59;;;;;;;19.92;8.32;;;;;;;3.10;86.88;102230.66;4989937;28;20061;-57
2021/01/15 09:26:26;;;;;;;14.23;7.68;;;;;;;3.16;86.94;102219.47;4988704;28;20436;-59
2021/01/15 09:28:53;;;;;;;19.20;7.88;;;;;;;3.22;86.88;102226.66;4986864;28;20057;-58
2021/01/15 09:31:19;;;;;;;16.83;7.13;;;;;;;3.27;87.09;102223.13;4988509;28;20038;-60
2021/01/15 09:33:50;;;;;;;16.17;6.85;;;;;;;3.32;87.14;102226.72;4984392;28;20045;-58
2021/01/15 09:36:26;;;;;;;11.68;5.75;;;;;;;3.36;87.16;102232.53;4972030;28;20050;-56
2021/01/15 09:38:55;;;;;;;14.32;4.57;;;;;;;3.41;87.20;102233.38;4947955;28;20046;-59
2021/01/15 09:41:25;;;;;;;11.57;6.68;;;;;;;3.47;86.94;102232.31;4989436;28;20492;-58
2021/01/15 09:43:53;;;;;;;10.75;4.65;;;;;;;3.53;87.10;102227.72;4988480;28;20455;-58
2021/01/15 09:46:22;;;;;;;17.52;8.30;;;;;;;3.58;86.92;102225.00;4972343;28;20141;-58
2021/01/15 09:48:49;;;;;;;17.05;5.82;;;;;;;3.62;87.10;102234.38;4988146;28;20054;-61
2021/01/15 09:51:18;;;;;;;10.07;5.93;;;;;;;3.67;87.49;102234.41;4986172;28;20050;-57
2021/01/15 09:53:45;;;;;;;8.68;4.15;;;;;;;3.73;87.29;102238.84;4986914;28;20175;-57
2021/01/15 09:56:23;;;;;;;8.38;4.55;;;;;;;3.78;87.48;102244.34;4971938;28;20054;-59
2021/01/15 09:58:50;;;;;;;15.10;4.80;;;;;;;3.84;87.26;102237.78;4988919;28;20050;-57
2021/01/15 10:01:17;;;;;;;9.88;4.05;;;;;;;3.89;87.67;102232.34;4973779;28;20050;-57
2021/01/15 10:03:48;;;;;;;7.45;4.15;;;;;;;3.96;87.36;102241.19;4988086;28;20042;-57
2021/01/15 10:06:18;;;;;;;11.88;4.70;;;;;;;4.00;87.84;102222.28;4988561;28;20093;-58
2021/01/15 10:08:46;;;;;;;11.57;4.72;;;;;;;4.07;87.29;102240.16;4970527;28;20385;-58
2021/01/15 10:11:24;;;;;;;11.77;5.15;;;;;;;4.10;87.38;102245.06;5006243;28;20048;-58
2021/01/15 10:13:56;;;;;;;12.80;4.25;;;;;;;4.16;87.36;102237.72;5001558;28;20042;-57
2021/01/15 10:16:23;;;;;;;8.20;4.15;;;;;;;4.20;87.36;102234.19;4972097;28;20046;-57
2021/01/15 10:18:51;;;;;;;8.23;4.78;;;;;;;4.23;87.49;102230.94;4989942;28;20129;-57
2021/01/15 10:21:27;;;;;;;15.38;4.90;;;;;;;4.27;87.57;102223.81;4988783;28;20459;-58
2021/01/15 10:23:56;;;;;;;6.32;4.18;;;;;;;4.32;87.15;102229.31;4988858;28;20036;-57
2021/01/15 10:26:32;;;;;;;9.73;4.53;;;;;;;4.37;87.11;102230.44;4989479;28;20065;-57
2021/01/15 10:29:02;;;;;;;8.02;4.32;;;;;;;4.42;87.50;102230.44;4971612;28;20519;-57
2021/01/15 10:31:34;;;;;;;7.75;4.07;;;;;;;4.46;87.22;102231.56;4988695;28;20125;-56
2021/01/15 10:34:04;;;;;;;11.05;4.20;;;;;;;4.53;87.33;102237.59;4987694;28;20423;-58
2021/01/15 10:36:31;;;;;;;10.32;5.03;;;;;;;4.56;87.27;102221.44;4989489;28;20485;-57
2021/01/15 10:38:57;;;;;;;7.25;4.40;;;;;;;4.60;87.25;102228.06;4992576;28;20042;-58
2021/01/15 10:41:38;;;;;;;8.77;4.00;;;;;;;4.66;87.18;102223.41;4992195;28;20046;-61
2021/01/15 10:44:07;;;;;;;7.38;3.88;;;;;;;4.73;87.15;102224.81;4990346;28;20046;-60
2021/01/15 10:46:38;;;;;;;7.97;4.18;;;;;;;4.81;86.88;102234.41;4991885;28;20046;-55
2021/01/15 10:49:13;;;;;;;6.93;4.28;;;;;;;4.87;87.17;102241.56;4990591;28;20057;-56
2021/01/15 10:51:43;;;;;;;10.25;3.67;;;;;;;4.92;86.88;102233.34;4975133;28;20062;-57
2021/01/15 10:54:10;;;;;;;10.52;4.00;;;;;;;4.99;86.70;102235.81;4975624;28;20051;-59
2021/01/15 10:56:37;;;;;;;14.65;4.63;;;;;;;5.02;87.03;102236.13;4991699;28;20540;-54
2021/01/15 10:59:04;;;;;;;6.35;3.88;;;;;;;5.07;86.79;102236.13;4990639;28;20120;-54
2021/01/15 11:01:34;;;;;;;6.97;3.10;;;;;;;5.10;87.20;102238.31;4998790;28;20042;-54
2021/01/15 11:04:01;;;;;;;7.28;3.58;;;;;;;5.15;86.83;102249.31;4990950;28;20485;-55
2021/01/15 11:06:28;;;;;;;6.90;3.75;;;;;;;5.17;86.90;102240.78;4991839;28;20073;-55
2021/01/15 11:08:54;;;;;;;11.23;3.78;;;;;;;5.21;86.93;102245.47;4992609;28;20157;-55
2021/01/15 11:11:21;;;;;;;13.38;3.70;;;;;;;5.25;86.96;102241.06;4994733;28;20043;-57
2021/01/15 11:13:47;;;;;;;6.25;3.42;;;;;;;5.27;86.58;102246.31;4979843;28;20041;-57
2021/01/15 11:16:14;;;;;;;16.95;4.95;;;;;;;5.32;86.60;102246.31;4998379;28;20063;-54
2021/01/15 11:18:41;;;;;;;5.10;3.42;;;;;;;5.34;86.54;102239.44;4974173;28;20050;-56
2021/01/15 11:21:08;;;;;;;9.90;4.15;;;;;;;5.37;86.73;102238.09;4992171;28;20066;-58
2021/01/15 11:23:36;;;;;;;11.25;4.20;;;;;;;5.40;86.79;102232.03;4991104;28;20108;-56
2021/01/15 11:26:04;;;;;;;6.22;3.80;;;;;;;5.41;86.55;102231.75;4991294;28;20121;-56
2021/01/15 11:28:30;;;;;;;7.10;3.60;;;;;;;5.43;86.60;102226.81;4992750;28;20144;-55
2021/01/15 11:30:56;;;;;;;9.75;4.00;;;;;;;5.47;86.78;102222.44;4992358;28;20058;-55
2021/01/15 11:33:23;;;;;;;12.82;4.93;;;;;;;5.50;86.78;102221.88;4991313;28;20129;-51
2021/01/15 11:35:49;;;;;;;10.63;4.13;;;;;;;5.52;86.59;102222.41;4992062;28;20102;-53
2021/01/15 11:38:16;;;;;;;5.80;3.13;;;;;;;5.54;86.85;102214.72;4991360;28;20038;-55